sensor_id;sensor_type;location;lat;lon;timestamp;P1;durP1;ratioP1;P2;durP2;ratioP2
9997;SDS011;5038;53.064;8.624;2022-10-31T00:01:18;36.93;;;33.33;;
9997;SDS011;5038;53.064;8.624;2022-10-31T00:03:47;39.40;;;35.20;;
9997;SDS011;5038;53.064;8.624;2022-10-31T00:06:16;38.60;;;34.50;;
9997;SDS011;5038;53.064;8.624;2022-10-31T00:08:45;37.70;;;33.60;;
9997;SDS011;5038;53.064;8.624;2022-10-31T00:11:13;37.80;;;33.17;;
9997;SDS011;5038;53.064;8.624;2022-10-31T00:13:42;35.37;;;31.77;;
9997;SDS011;5038;53.064;8.624;2022-10-31T00:16:14;39.50;;;35.60;;
9997;SDS011;5038;53.064;8.624;2022-10-31T00:18:47;40.87;;;36.60;;
9997;SDS011;5038;53.064;8.624;2022-10-31T00:21:15;37.53;;;33.70;;
9997;SDS011;5038;53.064;8.624;2022-10-31T00:23:44;39.93;;;35.73;;
9997;SDS011;5038;53.064;8.624;2022-10-31T00:26:12;42.80;;;38.30;;
9997;SDS011;5038;53.064;8.624;2022-10-31T00:28:41;37.33;;;33.50;;
9997;SDS011;5038;53.064;8.624;2022-10-31T00:31:10;39.57;;;35.47;;
9997;SDS011;5038;53.064;8.624;2022-10-31T00:33:41;38.80;;;34.70;;
9997;SDS011;5038;53.064;8.624;2022-10-31T00:36:10;38.17;;;34.17;;
9997;SDS011;5038;53.064;8.624;2022-10-31T00:38:40;39.63;;;33.70;;
9997;SDS011;5038;53.064;8.624;2022-10-31T00:41:08;38.87;;;34.77;;
9997;SDS011;5038;53.064;8.624;2022-10-31T00:43:39;38.60;;;34.77;;
9997;SDS011;5038;53.064;8.624;2022-10-31T00:46:08;38.50;;;34.40;;
9997;SDS011;5038;53.064;8.624;2022-10-31T00:48:36;43.20;;;36.17;;
9997;SDS011;5038;53.064;8.624;2022-10-31T00:51:06;41.37;;;36.73;;
9997;SDS011;5038;53.064;8.624;2022-10-31T00:53:34;42.13;;;36.50;;
9997;SDS011;5038;53.064;8.624;2022-10-31T00:56:03;43.80;;;35.80;;
9997;SDS011;5038;53.064;8.624;2022-10-31T00:58:32;40.40;;;36.30;;
9997;SDS011;5038;53.064;8.624;2022-10-31T01:01:00;39.30;;;34.67;;
9997;SDS011;5038;53.064;8.624;2022-10-31T01:03:30;39.07;;;34.97;;
9997;SDS011;5038;53.064;8.624;2022-10-31T01:06:00;39.30;;;34.97;;
9997;SDS011;5038;53.064;8.624;2022-10-31T01:08:33;37.40;;;33.40;;
9997;SDS011;5038;53.064;8.624;2022-10-31T01:11:03;36.93;;;33.03;;
9997;SDS011;5038;53.064;8.624;2022-10-31T01:13:34;36.43;;;32.43;;
9997;SDS011;5038;53.064;8.624;2022-10-31T01:16:03;38.50;;;34.13;;
9997;SDS011;5038;53.064;8.624;2022-10-31T01:18:32;39.60;;;35.50;;
9997;SDS011;5038;53.064;8.624;2022-10-31T01:21:02;41.40;;;34.40;;
9997;SDS011;5038;53.064;8.624;2022-10-31T01:23:33;38.00;;;33.83;;
9997;SDS011;5038;53.064;8.624;2022-10-31T01:26:05;35.70;;;32.10;;
9997;SDS011;5038;53.064;8.624;2022-10-31T01:28:35;37.40;;;33.30;;
9997;SDS011;5038;53.064;8.624;2022-10-31T01:31:05;36.23;;;32.43;;
9997;SDS011;5038;53.064;8.624;2022-10-31T01:33:35;36.60;;;32.73;;
9997;SDS011;5038;53.064;8.624;2022-10-31T01:36:11;34.00;;;30.37;;
9997;SDS011;5038;53.064;8.624;2022-10-31T01:38:42;35.50;;;31.77;;
9997;SDS011;5038;53.064;8.624;2022-10-31T01:41:11;35.17;;;31.60;;
9997;SDS011;5038;53.064;8.624;2022-10-31T01:43:44;39.07;;;33.63;;
9997;SDS011;5038;53.064;8.624;2022-10-31T01:46:15;36.03;;;32.17;;
9997;SDS011;5038;53.064;8.624;2022-10-31T01:48:46;35.13;;;31.67;;
9997;SDS011;5038;53.064;8.624;2022-10-31T01:51:15;35.40;;;31.60;;
9997;SDS011;5038;53.064;8.624;2022-10-31T01:53:47;36.40;;;32.30;;
9997;SDS011;5038;53.064;8.624;2022-10-31T01:56:19;36.60;;;32.33;;
9997;SDS011;5038;53.064;8.624;2022-10-31T01:58:49;37.30;;;33.60;;
9997;SDS011;5038;53.064;8.624;2022-10-31T02:01:18;38.73;;;34.77;;
9997;SDS011;5038;53.064;8.624;2022-10-31T02:03:47;39.50;;;35.40;;
9997;SDS011;5038;53.064;8.624;2022-10-31T02:06:21;38.93;;;33.97;;
9997;SDS011;5038;53.064;8.624;2022-10-31T02:08:56;35.50;;;31.80;;
9997;SDS011;5038;53.064;8.624;2022-10-31T02:11:25;37.13;;;33.07;;
9997;SDS011;5038;53.064;8.624;2022-10-31T02:13:55;35.97;;;32.40;;
9997;SDS011;5038;53.064;8.624;2022-10-31T02:16:23;40.00;;;35.83;;
9997;SDS011;5038;53.064;8.624;2022-10-31T02:18:52;39.33;;;35.03;;
9997;SDS011;5038;53.064;8.624;2022-10-31T02:21:22;39.60;;;35.60;;
9997;SDS011;5038;53.064;8.624;2022-10-31T02:24:05;39.27;;;35.13;;
9997;SDS011;5038;53.064;8.624;2022-10-31T02:26:54;37.20;;;33.20;;
9997;SDS011;5038;53.064;8.624;2022-10-31T02:29:38;36.43;;;32.87;;
9997;SDS011;5038;53.064;8.624;2022-10-31T02:32:37;38.27;;;34.57;;
9997;SDS011;5038;53.064;8.624;2022-10-31T02:35:17;37.97;;;34.00;;
9997;SDS011;5038;53.064;8.624;2022-10-31T02:37:57;38.60;;;34.13;;
9997;SDS011;5038;53.064;8.624;2022-10-31T02:40:39;37.77;;;33.97;;
9997;SDS011;5038;53.064;8.624;2022-10-31T02:43:45;39.93;;;35.80;;
9997;SDS011;5038;53.064;8.624;2022-10-31T02:46:24;36.87;;;32.43;;
9997;SDS011;5038;53.064;8.624;2022-10-31T02:49:00;37.47;;;33.67;;
9997;SDS011;5038;53.064;8.624;2022-10-31T02:51:33;37.37;;;33.70;;
9997;SDS011;5038;53.064;8.624;2022-10-31T02:54:03;40.23;;;35.97;;
9997;SDS011;5038;53.064;8.624;2022-10-31T02:56:31;35.57;;;31.90;;
9997;SDS011;5038;53.064;8.624;2022-10-31T02:58:59;38.33;;;34.43;;
9997;SDS011;5038;53.064;8.624;2022-10-31T03:01:36;37.03;;;33.33;;
9997;SDS011;5038;53.064;8.624;2022-10-31T03:07:20;35.50;;;32.10;;
9997;SDS011;5038;53.064;8.624;2022-10-31T03:09:55;39.47;;;35.50;;
9997;SDS011;5038;53.064;8.624;2022-10-31T03:12:33;37.97;;;34.23;;
9997;SDS011;5038;53.064;8.624;2022-10-31T03:15:13;37.27;;;33.43;;
9997;SDS011;5038;53.064;8.624;2022-10-31T03:17:50;35.27;;;31.87;;
9997;SDS011;5038;53.064;8.624;2022-10-31T03:20:26;39.70;;;35.80;;
9997;SDS011;5038;53.064;8.624;2022-10-31T03:23:00;37.23;;;33.63;;
9997;SDS011;5038;53.064;8.624;2022-10-31T03:25:30;35.50;;;31.70;;
9997;SDS011;5038;53.064;8.624;2022-10-31T03:28:01;36.10;;;32.20;;
9997;SDS011;5038;53.064;8.624;2022-10-31T03:30:32;36.83;;;32.93;;
9997;SDS011;5038;53.064;8.624;2022-10-31T03:33:03;36.83;;;33.00;;
9997;SDS011;5038;53.064;8.624;2022-10-31T03:35:38;35.63;;;32.20;;
9997;SDS011;5038;53.064;8.624;2022-10-31T03:38:08;36.70;;;32.97;;
9997;SDS011;5038;53.064;8.624;2022-10-31T03:40:38;35.57;;;32.27;;
9997;SDS011;5038;53.064;8.624;2022-10-31T03:43:12;36.40;;;32.77;;
9997;SDS011;5038;53.064;8.624;2022-10-31T03:45:45;37.13;;;33.33;;
9997;SDS011;5038;53.064;8.624;2022-10-31T03:48:14;35.80;;;32.20;;
9997;SDS011;5038;53.064;8.624;2022-10-31T03:50:48;36.70;;;33.30;;
9997;SDS011;5038;53.064;8.624;2022-10-31T03:53:22;36.27;;;32.70;;
9997;SDS011;5038;53.064;8.624;2022-10-31T03:55:55;38.53;;;34.73;;
9997;SDS011;5038;53.064;8.624;2022-10-31T03:58:32;40.57;;;36.37;;
9997;SDS011;5038;53.064;8.624;2022-10-31T04:01:06;48.13;;;40.10;;
9997;SDS011;5038;53.064;8.624;2022-10-31T04:03:39;47.10;;;38.03;;
9997;SDS011;5038;53.064;8.624;2022-10-31T04:06:12;42.83;;;38.20;;
9997;SDS011;5038;53.064;8.624;2022-10-31T04:08:44;45.10;;;39.73;;
9997;SDS011;5038;53.064;8.624;2022-10-31T04:11:18;44.70;;;38.23;;
9997;SDS011;5038;53.064;8.624;2022-10-31T04:14:10;49.90;;;43.97;;
9997;SDS011;5038;53.064;8.624;2022-10-31T04:16:39;46.00;;;39.93;;
9997;SDS011;5038;53.064;8.624;2022-10-31T04:19:11;46.00;;;41.13;;
9997;SDS011;5038;53.064;8.624;2022-10-31T04:21:41;54.27;;;44.27;;
9997;SDS011;5038;53.064;8.624;2022-10-31T04:24:10;47.73;;;42.07;;
9997;SDS011;5038;53.064;8.624;2022-10-31T04:26:40;62.80;;;43.77;;
9997;SDS011;5038;53.064;8.624;2022-10-31T04:29:08;61.40;;;41.90;;
9997;SDS011;5038;53.064;8.624;2022-10-31T04:31:37;70.70;;;41.47;;
9997;SDS011;5038;53.064;8.624;2022-10-31T04:34:05;54.00;;;42.30;;
9997;SDS011;5038;53.064;8.624;2022-10-31T04:36:34;48.00;;;42.17;;
9997;SDS011;5038;53.064;8.624;2022-10-31T04:39:04;58.63;;;42.53;;
9997;SDS011;5038;53.064;8.624;2022-10-31T04:41:50;45.47;;;40.83;;
9997;SDS011;5038;53.064;8.624;2022-10-31T04:44:18;60.37;;;42.40;;
9997;SDS011;5038;53.064;8.624;2022-10-31T04:46:50;51.03;;;41.50;;
9997;SDS011;5038;53.064;8.624;2022-10-31T04:49:18;52.00;;;39.73;;
9997;SDS011;5038;53.064;8.624;2022-10-31T04:51:46;50.00;;;41.60;;
9997;SDS011;5038;53.064;8.624;2022-10-31T04:54:16;46.23;;;41.10;;
9997;SDS011;5038;53.064;8.624;2022-10-31T04:57:03;35.30;;;31.43;;
9997;SDS011;5038;53.064;8.624;2022-10-31T04:59:32;45.30;;;40.60;;
9997;SDS011;5038;53.064;8.624;2022-10-31T05:02:00;45.87;;;41.03;;
9997;SDS011;5038;53.064;8.624;2022-10-31T05:04:42;46.00;;;41.40;;
9997;SDS011;5038;53.064;8.624;2022-10-31T05:07:11;44.87;;;40.67;;
9997;SDS011;5038;53.064;8.624;2022-10-31T05:09:41;44.50;;;40.23;;
9997;SDS011;5038;53.064;8.624;2022-10-31T05:12:11;47.70;;;43.10;;
9997;SDS011;5038;53.064;8.624;2022-10-31T05:15:18;46.10;;;41.17;;
9997;SDS011;5038;53.064;8.624;2022-10-31T05:18:11;61.87;;;42.60;;
9997;SDS011;5038;53.064;8.624;2022-10-31T05:20:58;60.37;;;41.00;;
9997;SDS011;5038;53.064;8.624;2022-10-31T05:23:46;42.73;;;38.77;;
9997;SDS011;5038;53.064;8.624;2022-10-31T05:26:17;50.90;;;41.70;;
9997;SDS011;5038;53.064;8.624;2022-10-31T05:28:46;44.93;;;40.70;;
9997;SDS011;5038;53.064;8.624;2022-10-31T05:31:14;44.53;;;40.00;;
9997;SDS011;5038;53.064;8.624;2022-10-31T05:33:43;63.70;;;42.20;;
9997;SDS011;5038;53.064;8.624;2022-10-31T05:36:16;46.63;;;40.70;;
9997;SDS011;5038;53.064;8.624;2022-10-31T05:38:59;43.67;;;39.47;;
9997;SDS011;5038;53.064;8.624;2022-10-31T05:41:36;45.17;;;39.30;;
9997;SDS011;5038;53.064;8.624;2022-10-31T05:44:10;43.57;;;39.40;;
9997;SDS011;5038;53.064;8.624;2022-10-31T05:46:59;44.47;;;39.50;;
9997;SDS011;5038;53.064;8.624;2022-10-31T05:49:35;41.67;;;37.33;;
9997;SDS011;5038;53.064;8.624;2022-10-31T05:52:22;42.67;;;38.50;;
9997;SDS011;5038;53.064;8.624;2022-10-31T05:54:59;43.53;;;37.60;;
9997;SDS011;5038;53.064;8.624;2022-10-31T05:57:31;40.30;;;36.53;;
9997;SDS011;5038;53.064;8.624;2022-10-31T06:00:00;41.10;;;36.70;;
9997;SDS011;5038;53.064;8.624;2022-10-31T06:02:33;38.30;;;34.70;;
9997;SDS011;5038;53.064;8.624;2022-10-31T06:05:23;40.80;;;37.10;;
9997;SDS011;5038;53.064;8.624;2022-10-31T06:07:52;40.23;;;36.80;;
9997;SDS011;5038;53.064;8.624;2022-10-31T06:10:21;39.30;;;35.80;;
9997;SDS011;5038;53.064;8.624;2022-10-31T06:12:55;38.97;;;35.40;;
9997;SDS011;5038;53.064;8.624;2022-10-31T06:16:01;35.97;;;32.80;;
9997;SDS011;5038;53.064;8.624;2022-10-31T06:18:35;36.83;;;33.53;;
9997;SDS011;5038;53.064;8.624;2022-10-31T06:21:03;35.63;;;32.67;;
9997;SDS011;5038;53.064;8.624;2022-10-31T06:23:31;37.53;;;34.33;;
9997;SDS011;5038;53.064;8.624;2022-10-31T06:26:28;37.07;;;33.80;;
9997;SDS011;5038;53.064;8.624;2022-10-31T06:28:59;34.67;;;31.97;;
9997;SDS011;5038;53.064;8.624;2022-10-31T06:31:53;36.13;;;33.13;;
9997;SDS011;5038;53.064;8.624;2022-10-31T06:34:21;34.50;;;31.70;;
9997;SDS011;5038;53.064;8.624;2022-10-31T06:36:49;35.10;;;32.20;;
9997;SDS011;5038;53.064;8.624;2022-10-31T06:39:22;36.97;;;33.37;;
9997;SDS011;5038;53.064;8.624;2022-10-31T06:41:52;36.70;;;33.50;;
9997;SDS011;5038;53.064;8.624;2022-10-31T06:44:23;38.47;;;34.70;;
9997;SDS011;5038;53.064;8.624;2022-10-31T06:47:11;38.37;;;34.57;;
9997;SDS011;5038;53.064;8.624;2022-10-31T06:49:56;43.53;;;39.33;;
9997;SDS011;5038;53.064;8.624;2022-10-31T06:52:25;39.00;;;34.83;;
9997;SDS011;5038;53.064;8.624;2022-10-31T06:54:54;36.47;;;33.33;;
9997;SDS011;5038;53.064;8.624;2022-10-31T06:57:24;40.70;;;37.10;;
9997;SDS011;5038;53.064;8.624;2022-10-31T06:59:53;43.20;;;39.20;;
9997;SDS011;5038;53.064;8.624;2022-10-31T07:02:41;38.67;;;35.37;;
9997;SDS011;5038;53.064;8.624;2022-10-31T07:05:10;38.60;;;34.83;;
9997;SDS011;5038;53.064;8.624;2022-10-31T07:07:39;44.13;;;39.63;;
9997;SDS011;5038;53.064;8.624;2022-10-31T07:10:08;37.90;;;34.20;;
9997;SDS011;5038;53.064;8.624;2022-10-31T07:12:48;36.20;;;33.00;;
9997;SDS011;5038;53.064;8.624;2022-10-31T07:15:24;37.47;;;34.00;;
9997;SDS011;5038;53.064;8.624;2022-10-31T07:17:53;36.73;;;33.53;;
9997;SDS011;5038;53.064;8.624;2022-10-31T07:20:26;36.80;;;33.70;;
9997;SDS011;5038;53.064;8.624;2022-10-31T07:22:55;38.70;;;34.80;;
9997;SDS011;5038;53.064;8.624;2022-10-31T07:25:24;37.57;;;34.37;;
9997;SDS011;5038;53.064;8.624;2022-10-31T07:28:13;43.73;;;32.50;;
9997;SDS011;5038;53.064;8.624;2022-10-31T07:30:50;51.80;;;34.20;;
9997;SDS011;5038;53.064;8.624;2022-10-31T07:33:19;41.33;;;34.27;;
9997;SDS011;5038;53.064;8.624;2022-10-31T07:36:06;38.27;;;31.43;;
9997;SDS011;5038;53.064;8.624;2022-10-31T07:38:41;35.63;;;31.17;;
9997;SDS011;5038;53.064;8.624;2022-10-31T07:41:10;34.97;;;31.70;;
9997;SDS011;5038;53.064;8.624;2022-10-31T07:43:41;34.07;;;31.03;;
9997;SDS011;5038;53.064;8.624;2022-10-31T07:46:18;34.10;;;30.67;;
9997;SDS011;5038;53.064;8.624;2022-10-31T07:49:09;35.50;;;31.87;;
9997;SDS011;5038;53.064;8.624;2022-10-31T07:51:56;36.13;;;32.50;;
9997;SDS011;5038;53.064;8.624;2022-10-31T07:54:43;34.67;;;31.80;;
9997;SDS011;5038;53.064;8.624;2022-10-31T07:57:11;39.50;;;36.00;;
9997;SDS011;5038;53.064;8.624;2022-10-31T07:59:42;39.63;;;35.73;;
9997;SDS011;5038;53.064;8.624;2022-10-31T08:02:11;39.83;;;35.73;;
9997;SDS011;5038;53.064;8.624;2022-10-31T08:04:45;36.20;;;33.10;;
9997;SDS011;5038;53.064;8.624;2022-10-31T08:07:26;35.97;;;32.53;;
9997;SDS011;5038;53.064;8.624;2022-10-31T08:10:00;38.40;;;34.73;;
9997;SDS011;5038;53.064;8.624;2022-10-31T08:12:30;37.83;;;34.60;;
9997;SDS011;5038;53.064;8.624;2022-10-31T08:14:58;33.83;;;31.10;;
9997;SDS011;5038;53.064;8.624;2022-10-31T08:17:29;34.43;;;31.50;;
9997;SDS011;5038;53.064;8.624;2022-10-31T08:20:00;35.70;;;32.80;;
9997;SDS011;5038;53.064;8.624;2022-10-31T08:22:35;36.03;;;32.97;;
9997;SDS011;5038;53.064;8.624;2022-10-31T08:25:09;34.87;;;31.77;;
9997;SDS011;5038;53.064;8.624;2022-10-31T08:27:38;36.53;;;33.73;;
9997;SDS011;5038;53.064;8.624;2022-10-31T08:30:15;33.47;;;30.67;;
9997;SDS011;5038;53.064;8.624;2022-10-31T08:33:03;35.90;;;32.83;;
9997;SDS011;5038;53.064;8.624;2022-10-31T08:35:51;35.20;;;32.40;;
9997;SDS011;5038;53.064;8.624;2022-10-31T08:38:51;35.60;;;32.60;;
9997;SDS011;5038;53.064;8.624;2022-10-31T08:41:27;35.60;;;32.70;;
9997;SDS011;5038;53.064;8.624;2022-10-31T08:43:57;34.67;;;31.87;;
9997;SDS011;5038;53.064;8.624;2022-10-31T08:46:25;35.73;;;33.00;;
9997;SDS011;5038;53.064;8.624;2022-10-31T08:48:55;36.30;;;33.37;;
9997;SDS011;5038;53.064;8.624;2022-10-31T08:51:23;39.53;;;36.03;;
9997;SDS011;5038;53.064;8.624;2022-10-31T08:53:53;36.77;;;33.40;;
9997;SDS011;5038;53.064;8.624;2022-10-31T08:56:40;38.60;;;35.30;;
9997;SDS011;5038;53.064;8.624;2022-10-31T08:59:23;40.40;;;36.97;;
9997;SDS011;5038;53.064;8.624;2022-10-31T09:02:20;40.17;;;36.73;;
9997;SDS011;5038;53.064;8.624;2022-10-31T09:04:52;40.40;;;37.10;;
9997;SDS011;5038;53.064;8.624;2022-10-31T09:07:20;39.07;;;35.77;;
9997;SDS011;5038;53.064;8.624;2022-10-31T09:09:49;40.17;;;36.67;;
9997;SDS011;5038;53.064;8.624;2022-10-31T09:12:18;43.93;;;40.07;;
9997;SDS011;5038;53.064;8.624;2022-10-31T09:15:05;41.83;;;38.03;;
9997;SDS011;5038;53.064;8.624;2022-10-31T09:17:57;41.00;;;37.07;;
9997;SDS011;5038;53.064;8.624;2022-10-31T09:20:40;39.10;;;35.50;;
9997;SDS011;5038;53.064;8.624;2022-10-31T09:23:10;41.23;;;37.67;;
9997;SDS011;5038;53.064;8.624;2022-10-31T09:25:39;40.70;;;36.63;;
9997;SDS011;5038;53.064;8.624;2022-10-31T09:28:36;39.37;;;35.73;;
9997;SDS011;5038;53.064;8.624;2022-10-31T09:31:11;40.43;;;36.70;;
9997;SDS011;5038;53.064;8.624;2022-10-31T09:34:02;38.73;;;35.17;;
9997;SDS011;5038;53.064;8.624;2022-10-31T09:36:38;39.50;;;35.70;;
9997;SDS011;5038;53.064;8.624;2022-10-31T09:39:11;40.80;;;37.13;;
9997;SDS011;5038;53.064;8.624;2022-10-31T09:41:47;39.73;;;36.17;;
9997;SDS011;5038;53.064;8.624;2022-10-31T09:44:30;41.37;;;37.67;;
9997;SDS011;5038;53.064;8.624;2022-10-31T09:47:15;40.10;;;36.27;;
9997;SDS011;5038;53.064;8.624;2022-10-31T09:50:11;40.57;;;36.67;;
9997;SDS011;5038;53.064;8.624;2022-10-31T09:52:47;41.97;;;37.90;;
9997;SDS011;5038;53.064;8.624;2022-10-31T09:55:23;42.37;;;38.50;;
9997;SDS011;5038;53.064;8.624;2022-10-31T09:57:58;42.07;;;38.10;;
9997;SDS011;5038;53.064;8.624;2022-10-31T10:00:28;42.20;;;38.10;;
9997;SDS011;5038;53.064;8.624;2022-10-31T10:03:06;43.13;;;39.07;;
9997;SDS011;5038;53.064;8.624;2022-10-31T10:05:40;41.10;;;37.30;;
9997;SDS011;5038;53.064;8.624;2022-10-31T10:08:26;44.77;;;40.57;;
9997;SDS011;5038;53.064;8.624;2022-10-31T10:11:16;41.97;;;38.07;;
9997;SDS011;5038;53.064;8.624;2022-10-31T10:14:04;44.37;;;40.17;;
9997;SDS011;5038;53.064;8.624;2022-10-31T10:16:47;42.70;;;38.50;;
9997;SDS011;5038;53.064;8.624;2022-10-31T10:19:29;45.73;;;41.60;;
9997;SDS011;5038;53.064;8.624;2022-10-31T10:22:17;46.20;;;41.50;;
9997;SDS011;5038;53.064;8.624;2022-10-31T10:24:59;42.67;;;38.60;;
9997;SDS011;5038;53.064;8.624;2022-10-31T10:27:46;41.83;;;37.83;;
9997;SDS011;5038;53.064;8.624;2022-10-31T10:30:18;43.97;;;39.60;;
9997;SDS011;5038;53.064;8.624;2022-10-31T10:32:48;42.40;;;38.40;;
9997;SDS011;5038;53.064;8.624;2022-10-31T10:35:20;45.20;;;40.60;;
9997;SDS011;5038;53.064;8.624;2022-10-31T10:37:52;45.03;;;40.57;;
9997;SDS011;5038;53.064;8.624;2022-10-31T10:40:25;44.10;;;39.40;;
9997;SDS011;5038;53.064;8.624;2022-10-31T10:42:56;41.40;;;37.50;;
9997;SDS011;5038;53.064;8.624;2022-10-31T10:45:50;37.37;;;33.47;;
9997;SDS011;5038;53.064;8.624;2022-10-31T10:48:43;41.10;;;37.10;;
9997;SDS011;5038;53.064;8.624;2022-10-31T10:51:20;37.53;;;34.00;;
9997;SDS011;5038;53.064;8.624;2022-10-31T10:54:13;36.30;;;32.60;;
9997;SDS011;5038;53.064;8.624;2022-10-31T10:56:58;36.47;;;32.80;;
9997;SDS011;5038;53.064;8.624;2022-10-31T10:59:33;37.07;;;33.73;;
9997;SDS011;5038;53.064;8.624;2022-10-31T11:02:02;39.97;;;35.90;;
9997;SDS011;5038;53.064;8.624;2022-10-31T11:04:32;36.67;;;32.80;;
9997;SDS011;5038;53.064;8.624;2022-10-31T11:07:03;35.87;;;32.30;;
9997;SDS011;5038;53.064;8.624;2022-10-31T11:09:33;36.13;;;32.87;;
9997;SDS011;5038;53.064;8.624;2022-10-31T11:12:07;35.93;;;32.40;;
9997;SDS011;5038;53.064;8.624;2022-10-31T11:14:42;36.40;;;32.63;;
9997;SDS011;5038;53.064;8.624;2022-10-31T11:17:17;33.87;;;29.90;;
9997;SDS011;5038;53.064;8.624;2022-10-31T11:19:59;30.40;;;27.13;;
9997;SDS011;5038;53.064;8.624;2022-10-31T11:22:28;31.10;;;27.77;;
9997;SDS011;5038;53.064;8.624;2022-10-31T11:24:56;28.53;;;25.97;;
9997;SDS011;5038;53.064;8.624;2022-10-31T11:27:26;29.73;;;26.93;;
9997;SDS011;5038;53.064;8.624;2022-10-31T11:30:03;32.57;;;29.47;;
9997;SDS011;5038;53.064;8.624;2022-10-31T11:32:32;30.17;;;27.37;;
9997;SDS011;5038;53.064;8.624;2022-10-31T11:35:01;30.73;;;27.77;;
9997;SDS011;5038;53.064;8.624;2022-10-31T11:37:40;28.90;;;26.00;;
9997;SDS011;5038;53.064;8.624;2022-10-31T11:40:14;32.80;;;29.60;;
9997;SDS011;5038;53.064;8.624;2022-10-31T11:42:46;31.37;;;28.47;;
9997;SDS011;5038;53.064;8.624;2022-10-31T11:45:19;28.23;;;25.53;;
9997;SDS011;5038;53.064;8.624;2022-10-31T11:47:57;30.47;;;27.63;;
9997;SDS011;5038;53.064;8.624;2022-10-31T11:50:31;28.70;;;25.83;;
9997;SDS011;5038;53.064;8.624;2022-10-31T11:53:02;29.93;;;27.17;;
9997;SDS011;5038;53.064;8.624;2022-10-31T11:55:32;28.30;;;25.47;;
9997;SDS011;5038;53.064;8.624;2022-10-31T11:58:02;29.93;;;27.07;;
9997;SDS011;5038;53.064;8.624;2022-10-31T12:00:32;29.97;;;27.07;;
9997;SDS011;5038;53.064;8.624;2022-10-31T12:03:06;29.17;;;26.37;;
9997;SDS011;5038;53.064;8.624;2022-10-31T12:05:41;29.73;;;26.63;;
9997;SDS011;5038;53.064;8.624;2022-10-31T12:08:11;30.43;;;27.37;;
9997;SDS011;5038;53.064;8.624;2022-10-31T12:10:44;30.03;;;26.93;;
9997;SDS011;5038;53.064;8.624;2022-10-31T12:13:27;32.03;;;28.70;;
9997;SDS011;5038;53.064;8.624;2022-10-31T12:16:02;30.40;;;27.30;;
9997;SDS011;5038;53.064;8.624;2022-10-31T12:18:38;34.27;;;30.90;;
9997;SDS011;5038;53.064;8.624;2022-10-31T12:21:18;30.60;;;27.50;;
9997;SDS011;5038;53.064;8.624;2022-10-31T12:23:59;30.43;;;27.50;;
9997;SDS011;5038;53.064;8.624;2022-10-31T12:26:37;29.63;;;26.57;;
9997;SDS011;5038;53.064;8.624;2022-10-31T12:29:19;28.23;;;25.40;;
9997;SDS011;5038;53.064;8.624;2022-10-31T12:32:04;31.03;;;28.10;;
9997;SDS011;5038;53.064;8.624;2022-10-31T12:35:00;32.17;;;28.77;;
9997;SDS011;5038;53.064;8.624;2022-10-31T12:37:50;35.33;;;31.83;;
9997;SDS011;5038;53.064;8.624;2022-10-31T12:40:32;33.00;;;29.70;;
9997;SDS011;5038;53.064;8.624;2022-10-31T12:43:16;37.03;;;33.47;;
9997;SDS011;5038;53.064;8.624;2022-10-31T12:45:59;34.57;;;31.23;;
9997;SDS011;5038;53.064;8.624;2022-10-31T12:48:37;35.47;;;32.03;;
9997;SDS011;5038;53.064;8.624;2022-10-31T12:51:24;36.77;;;33.20;;
9997;SDS011;5038;53.064;8.624;2022-10-31T12:54:08;36.17;;;32.60;;
9997;SDS011;5038;53.064;8.624;2022-10-31T12:56:50;39.27;;;35.27;;
9997;SDS011;5038;53.064;8.624;2022-10-31T12:59:28;38.53;;;34.47;;
9997;SDS011;5038;53.064;8.624;2022-10-31T13:02:04;38.20;;;34.53;;
9997;SDS011;5038;53.064;8.624;2022-10-31T13:04:43;38.13;;;34.57;;
9997;SDS011;5038;53.064;8.624;2022-10-31T13:07:15;38.10;;;34.60;;
9997;SDS011;5038;53.064;8.624;2022-10-31T13:09:50;40.90;;;37.00;;
9997;SDS011;5038;53.064;8.624;2022-10-31T13:12:22;38.73;;;34.87;;
9997;SDS011;5038;53.064;8.624;2022-10-31T13:14:52;39.83;;;36.03;;
9997;SDS011;5038;53.064;8.624;2022-10-31T13:17:27;39.93;;;35.97;;
9997;SDS011;5038;53.064;8.624;2022-10-31T13:20:03;39.20;;;35.27;;
9997;SDS011;5038;53.064;8.624;2022-10-31T13:22:51;45.27;;;40.60;;
9997;SDS011;5038;53.064;8.624;2022-10-31T13:25:22;46.80;;;42.10;;
9997;SDS011;5038;53.064;8.624;2022-10-31T13:27:53;43.00;;;38.63;;
9997;SDS011;5038;53.064;8.624;2022-10-31T13:30:25;39.93;;;35.93;;
9997;SDS011;5038;53.064;8.624;2022-10-31T13:33:00;37.87;;;34.30;;
9997;SDS011;5038;53.064;8.624;2022-10-31T13:35:32;37.80;;;34.23;;
9997;SDS011;5038;53.064;8.624;2022-10-31T13:38:11;39.27;;;35.10;;
9997;SDS011;5038;53.064;8.624;2022-10-31T13:40:48;38.17;;;34.10;;
9997;SDS011;5038;53.064;8.624;2022-10-31T13:43:25;41.13;;;36.87;;
9997;SDS011;5038;53.064;8.624;2022-10-31T13:45:58;38.13;;;34.07;;
9997;SDS011;5038;53.064;8.624;2022-10-31T13:48:39;39.50;;;35.60;;
9997;SDS011;5038;53.064;8.624;2022-10-31T13:51:09;38.23;;;34.50;;
9997;SDS011;5038;53.064;8.624;2022-10-31T13:53:39;35.27;;;31.67;;
9997;SDS011;5038;53.064;8.624;2022-10-31T13:56:17;38.83;;;34.57;;
9997;SDS011;5038;53.064;8.624;2022-10-31T13:58:57;39.83;;;35.57;;
9997;SDS011;5038;53.064;8.624;2022-10-31T14:01:31;37.17;;;33.23;;
9997;SDS011;5038;53.064;8.624;2022-10-31T14:04:03;38.70;;;34.50;;
9997;SDS011;5038;53.064;8.624;2022-10-31T14:06:43;40.77;;;36.17;;
9997;SDS011;5038;53.064;8.624;2022-10-31T14:09:21;36.43;;;32.70;;
9997;SDS011;5038;53.064;8.624;2022-10-31T14:11:58;37.13;;;33.27;;
9997;SDS011;5038;53.064;8.624;2022-10-31T14:14:32;39.43;;;33.37;;
9997;SDS011;5038;53.064;8.624;2022-10-31T14:17:03;38.10;;;34.10;;
9997;SDS011;5038;53.064;8.624;2022-10-31T14:19:35;37.77;;;33.77;;
9997;SDS011;5038;53.064;8.624;2022-10-31T14:22:03;40.97;;;31.90;;
9997;SDS011;5038;53.064;8.624;2022-10-31T14:24:33;33.60;;;30.10;;
9997;SDS011;5038;53.064;8.624;2022-10-31T14:27:04;30.83;;;27.60;;
9997;SDS011;5038;53.064;8.624;2022-10-31T14:32:47;32.67;;;29.27;;
9997;SDS011;5038;53.064;8.624;2022-10-31T14:35:20;33.30;;;29.90;;
9997;SDS011;5038;53.064;8.624;2022-10-31T14:37:57;30.10;;;27.20;;
9997;SDS011;5038;53.064;8.624;2022-10-31T14:40:40;34.63;;;30.97;;
9997;SDS011;5038;53.064;8.624;2022-10-31T14:46:15;34.13;;;30.63;;
9997;SDS011;5038;53.064;8.624;2022-10-31T14:48:56;33.00;;;29.50;;
9997;SDS011;5038;53.064;8.624;2022-10-31T14:51:45;39.63;;;32.20;;
9997;SDS011;5038;53.064;8.624;2022-10-31T14:54:16;33.23;;;29.67;;
9997;SDS011;5038;53.064;8.624;2022-10-31T14:56:48;34.93;;;31.53;;
9997;SDS011;5038;53.064;8.624;2022-10-31T14:59:19;34.53;;;30.83;;
9997;SDS011;5038;53.064;8.624;2022-10-31T15:01:53;36.43;;;32.53;;
9997;SDS011;5038;53.064;8.624;2022-10-31T15:04:26;35.40;;;31.80;;
9997;SDS011;5038;53.064;8.624;2022-10-31T15:06:59;37.13;;;33.10;;
9997;SDS011;5038;53.064;8.624;2022-10-31T15:09:32;39.50;;;34.73;;
9997;SDS011;5038;53.064;8.624;2022-10-31T15:12:19;39.33;;;35.13;;
9997;SDS011;5038;53.064;8.624;2022-10-31T15:14:50;41.00;;;34.23;;
9997;SDS011;5038;53.064;8.624;2022-10-31T15:17:19;41.90;;;35.83;;
9997;SDS011;5038;53.064;8.624;2022-10-31T15:19:48;45.30;;;36.33;;
9997;SDS011;5038;53.064;8.624;2022-10-31T15:22:19;40.23;;;34.07;;
9997;SDS011;5038;53.064;8.624;2022-10-31T15:24:51;38.33;;;34.17;;
9997;SDS011;5038;53.064;8.624;2022-10-31T15:27:23;38.50;;;34.27;;
9997;SDS011;5038;53.064;8.624;2022-10-31T15:29:52;38.43;;;34.33;;
9997;SDS011;5038;53.064;8.624;2022-10-31T15:32:21;40.57;;;34.63;;
9997;SDS011;5038;53.064;8.624;2022-10-31T15:34:51;43.23;;;34.33;;
9997;SDS011;5038;53.064;8.624;2022-10-31T15:37:22;41.20;;;35.10;;
9997;SDS011;5038;53.064;8.624;2022-10-31T15:39:51;40.20;;;34.30;;
9997;SDS011;5038;53.064;8.624;2022-10-31T15:42:21;41.30;;;35.80;;
9997;SDS011;5038;53.064;8.624;2022-10-31T15:44:52;44.37;;;34.53;;